createdAt,value
2023-03-29T00:04:14.373Z,6.50
2023-03-29T00:09:18.784Z,5.70
2023-03-29T00:14:21.947Z,7.27
2023-03-29T00:19:25.357Z,8.10
2023-03-29T00:24:28.467Z,5.53
2023-03-29T00:29:31.562Z,5.60
2023-03-29T00:34:36.656Z,8.63
2023-03-29T00:39:42.652Z,6.17
2023-03-29T00:44:58.229Z,6.10
2023-03-29T00:50:07.320Z,4.93
2023-03-29T00:55:18.369Z,8.37
2023-03-29T01:00:23.858Z,9.27
2023-03-29T01:05:31.659Z,8.10
2023-03-29T01:10:42.114Z,9.77
2023-03-29T01:15:46.478Z,5.63
2023-03-29T01:20:57.087Z,6.43
2023-03-29T01:26:10.227Z,9.83
2023-03-29T01:31:25.512Z,5.97
2023-03-29T01:36:35.342Z,7.57
2023-03-29T01:41:55.696Z,7.27
2023-03-29T01:47:11.654Z,7.30
2023-03-29T01:52:18.809Z,12.03
2023-03-29T01:57:25.439Z,8.53
2023-03-29T02:02:29.695Z,5.77
2023-03-29T02:07:38.410Z,10.93
2023-03-29T02:12:41.918Z,7.57
2023-03-29T02:17:45.169Z,5.07
2023-03-29T02:22:52.877Z,6.90
2023-03-29T02:27:56.600Z,10.47
2023-03-29T02:33:14.421Z,10.43
2023-03-29T02:38:19.256Z,9.20
2023-03-29T02:43:25.760Z,9.07
2023-03-29T02:48:30.268Z,9.87
2023-03-29T02:53:40.821Z,9.40
2023-03-29T02:58:44.023Z,8.73
2023-03-29T03:03:48.267Z,9.63
2023-03-29T03:08:52.045Z,9.90
2023-03-29T03:13:55.011Z,9.67
2023-03-29T03:18:58.051Z,9.47
2023-03-29T03:24:01.201Z,8.77
2023-03-29T03:29:04.244Z,9.13
2023-03-29T03:34:27.941Z,8.67
2023-03-29T03:39:37.045Z,7.30
2023-03-29T03:44:42.407Z,7.53
2023-03-29T03:50:06.259Z,10.10
2023-03-29T03:55:09.646Z,11.40
2023-03-29T04:00:35.650Z,7.90
2023-03-29T04:06:04.057Z,8.80
2023-03-29T04:11:24.150Z,9.33
2023-03-29T04:16:27.888Z,10.40
2023-03-29T04:21:34.798Z,7.50
2023-03-29T04:26:38.446Z,6.40
2023-03-29T04:31:48.798Z,7.97
2023-03-29T04:37:24.047Z,10.60
2023-03-29T04:42:29.776Z,11.43
2023-03-29T04:47:33.138Z,8.00
2023-03-29T04:52:46.391Z,9.97
2023-03-29T04:57:49.518Z,11.87
2023-03-29T05:02:58.155Z,11.00
2023-03-29T05:08:02.177Z,7.33
2023-03-29T05:13:14.944Z,10.00
2023-03-29T05:18:17.953Z,11.07
2023-03-29T05:23:21.767Z,12.33
2023-03-29T05:28:57.627Z,13.67
2023-03-29T05:34:01.683Z,12.63
2023-03-29T05:39:07.170Z,21.10
2023-03-29T05:44:11.883Z,15.33
2023-03-29T05:49:18.287Z,16.20
2023-03-29T05:54:38.456Z,11.50
2023-03-29T05:59:42.706Z,12.17
2023-03-29T06:04:47.057Z,12.33
2023-03-29T06:09:59.020Z,19.10
2023-03-29T06:15:05.318Z,36.80
2023-03-29T06:20:17.336Z,28.43
2023-03-29T06:25:25.383Z,15.87
2023-03-29T06:30:29.184Z,15.20
2023-03-29T06:35:34.918Z,21.70
2023-03-29T06:40:44.781Z,11.93
2023-03-29T06:45:48.102Z,15.27
2023-03-29T06:51:05.110Z,13.93
2023-03-29T06:56:10.069Z,17.93
2023-03-29T07:01:18.495Z,12.60
2023-03-29T07:06:27.097Z,15.00
2023-03-29T07:11:32.184Z,8.37
2023-03-29T07:16:47.412Z,11.87
2023-03-29T07:21:55.279Z,10.83
2023-03-29T07:27:07.575Z,10.93
2023-03-29T07:32:11.754Z,5.27
2023-03-29T07:37:17.809Z,10.23
2023-03-29T07:42:25.336Z,6.53
2023-03-29T07:47:28.772Z,4.67
2023-03-29T07:52:31.938Z,5.60
2023-03-29T07:57:37.983Z,8.17
2023-03-29T08:02:45.532Z,8.13
2023-03-29T08:07:49.983Z,5.33
2023-03-29T08:12:53.924Z,7.60
2023-03-29T08:18:04.290Z,4.13
2023-03-29T08:23:08.707Z,5.70
2023-03-29T08:28:30.116Z,7.83
2023-03-29T08:33:33.896Z,7.87
2023-03-29T08:39:02.292Z,7.07
2023-03-29T08:44:20.914Z,8.03
2023-03-29T08:49:31.046Z,4.17
2023-03-29T08:54:41.828Z,2.83
2023-03-29T09:00:06.472Z,3.90
2023-03-29T09:05:48.332Z,6.13
2023-03-29T09:11:24.776Z,5.33
2023-03-29T09:16:46.917Z,5.33
2023-03-29T09:22:18.461Z,5.60
2023-03-29T09:27:26.875Z,6.93
2023-03-29T09:32:50.352Z,6.37
2023-03-29T09:37:56.186Z,5.43
2023-03-29T09:43:01.417Z,9.43
2023-03-29T09:48:11.926Z,4.67
2023-03-29T09:53:16.677Z,4.70
2023-03-29T09:58:31.485Z,4.03
2023-03-29T10:03:35.433Z,4.87
2023-03-29T10:08:59.724Z,4.40
2023-03-29T10:14:17.964Z,3.03
2023-03-29T10:19:35.220Z,5.47
2023-03-29T10:24:38.369Z,4.67
2023-03-29T10:29:42.767Z,4.47
2023-03-29T10:34:50.107Z,6.77
2023-03-29T10:39:54.680Z,4.50
2023-03-29T10:44:59.665Z,5.10
2023-03-29T10:50:06.174Z,4.53
2023-03-29T10:55:13.380Z,4.60
2023-03-29T11:00:39.733Z,7.07
2023-03-29T11:05:46.916Z,4.77
2023-03-29T11:10:53.128Z,4.47
2023-03-29T11:16:15.258Z,4.50
2023-03-29T11:21:56.389Z,4.43
2023-03-29T11:27:30.508Z,32.77
2023-03-29T11:33:05.339Z,3.00
2023-03-29T11:38:27.135Z,5.90
2023-03-29T11:43:57.901Z,3.50
2023-03-29T11:49:10.572Z,3.93
2023-03-29T11:54:29.129Z,5.13
2023-03-29T11:59:39.887Z,5.03
2023-03-29T12:04:47.548Z,5.40
2023-03-29T12:09:59.137Z,4.00
2023-03-29T12:15:11.521Z,2.63
2023-03-29T12:20:29.670Z,5.53
2023-03-29T12:25:53.962Z,3.43
2023-03-29T12:30:58.676Z,4.57
2023-03-29T12:36:11.133Z,5.60
2023-03-29T12:41:38.328Z,7.80
2023-03-29T12:47:04.138Z,7.73
2023-03-29T12:52:22.719Z,10.93
2023-03-29T12:57:38.335Z,8.77
2023-03-29T13:02:42.932Z,5.90
2023-03-29T13:07:48.629Z,5.03
2023-03-29T13:12:51.949Z,5.87
2023-03-29T13:18:12.254Z,3.53
2023-03-29T13:29:30.029Z,5.53
2023-03-29T13:35:02.925Z,3.47
2023-03-29T13:40:25.410Z,5.97
2023-03-29T13:45:33.121Z,16.60
2023-03-29T13:50:40.123Z,16.13
2023-03-29T13:55:48.984Z,8.77
2023-03-29T14:01:02.017Z,40.23
2023-03-29T14:06:06.619Z,13.07
2023-03-29T14:11:23.339Z,15.17
2023-03-29T14:16:29.263Z,6.90
2023-03-29T14:21:33.123Z,5.03
2023-03-29T14:26:36.224Z,5.97
2023-03-29T14:31:41.875Z,7.03
2023-03-29T14:36:46.770Z,5.93
2023-03-29T14:41:52.626Z,6.50
2023-03-29T14:46:59.501Z,6.93
2023-03-29T14:52:02.674Z,9.67
2023-03-29T14:57:07.617Z,8.93
2023-03-29T15:02:27.647Z,14.07
2023-03-29T15:07:33.571Z,13.67
2023-03-29T15:12:38.213Z,17.07
2023-03-29T15:17:50.903Z,9.93
2023-03-29T15:23:04.816Z,13.93
2023-03-29T15:28:27.353Z,16.10
2023-03-29T15:33:37.791Z,12.67
2023-03-29T15:38:44.674Z,8.87
2023-03-29T15:43:50.141Z,11.23
2023-03-29T15:48:54.078Z,13.33
2023-03-29T15:53:57.193Z,18.43
2023-03-29T15:59:02.010Z,10.47
2023-03-29T16:04:06.042Z,22.37
2023-03-29T16:09:12.285Z,12.50
2023-03-29T16:14:25.614Z,15.53
2023-03-29T16:19:29.764Z,12.43
2023-03-29T16:24:34.496Z,11.03
2023-03-29T16:29:37.784Z,24.63
2023-03-29T16:34:41.551Z,34.07
2023-03-29T16:39:45.443Z,39.23
2023-03-29T16:44:48.765Z,11.40
2023-03-29T16:49:54.957Z,9.47
2023-03-29T16:54:58.334Z,9.63
2023-03-29T17:00:01.904Z,15.13
2023-03-29T17:05:06.518Z,21.00
2023-03-29T17:10:11.171Z,14.20
2023-03-29T17:15:15.162Z,15.80
2023-03-29T17:20:18.473Z,43.90
2023-03-29T17:25:22.625Z,24.17
2023-03-29T17:30:26.270Z,18.30
2023-03-29T17:35:29.480Z,17.30
2023-03-29T17:40:37.009Z,22.37
2023-03-29T17:45:40.885Z,17.57
2023-03-29T17:50:44.269Z,19.53
2023-03-29T17:55:49.501Z,20.93
2023-03-29T18:00:52.662Z,13.03
2023-03-29T18:05:56.938Z,14.70
2023-03-29T18:11:12.038Z,29.57
2023-03-29T18:16:15.870Z,23.77
2023-03-29T18:21:19.381Z,22.57
2023-03-29T18:26:23.169Z,16.80
2023-03-29T18:31:26.613Z,20.07
2023-03-29T18:36:30.813Z,18.67
2023-03-29T18:41:35.932Z,22.57
2023-03-29T18:46:38.970Z,22.37
2023-03-29T18:51:42.481Z,23.03
2023-03-29T18:56:48.616Z,18.90
2023-03-29T19:01:52.002Z,24.47
2023-03-29T19:06:56.370Z,19.10
2023-03-29T19:11:59.322Z,22.40
2023-03-29T19:17:02.539Z,18.20
2023-03-29T19:22:05.742Z,19.37
2023-03-29T19:27:11.377Z,22.13
2023-03-29T19:32:15.791Z,22.33
2023-03-29T19:37:19.505Z,22.40
2023-03-29T19:42:22.633Z,24.77
2023-03-29T19:47:26.186Z,19.90
2023-03-29T19:52:30.558Z,18.70
2023-03-29T19:57:34.429Z,19.57
2023-03-29T20:02:37.864Z,21.87
2023-03-29T20:07:41.261Z,20.23
2023-03-29T20:12:44.763Z,21.33
2023-03-29T20:17:47.887Z,21.13
2023-03-29T20:22:54.423Z,20.33
2023-03-29T20:27:57.766Z,17.63
2023-03-29T20:33:01.301Z,20.07
2023-03-29T20:38:04.642Z,19.17
2023-03-29T20:43:13.804Z,19.17
2023-03-29T20:48:17.747Z,28.93
2023-03-29T20:53:21.439Z,20.73
2023-03-29T20:58:27.537Z,17.33
2023-03-29T21:03:30.627Z,18.27
2023-03-29T21:08:33.936Z,20.03
2023-03-29T21:13:37.439Z,20.00
2023-03-29T21:18:40.990Z,16.37
2023-03-29T21:23:44.258Z,15.87
2023-03-29T21:28:48.836Z,18.00
2023-03-29T21:33:53.486Z,16.83
2023-03-29T21:38:56.637Z,20.03
2023-03-29T21:43:59.947Z,17.67
2023-03-29T21:49:03.235Z,16.63
2023-03-29T21:54:06.640Z,20.33
2023-03-29T21:59:11.000Z,17.00
2023-03-29T22:04:22.607Z,21.60
2023-03-29T22:09:35.454Z,16.90
2023-03-29T22:14:38.500Z,15.90
2023-03-29T22:19:42.338Z,17.70
2023-03-29T22:24:45.572Z,18.37
2023-03-29T22:29:48.895Z,16.10
2023-03-29T22:34:52.013Z,14.57
2023-03-29T22:39:55.052Z,17.43
2023-03-29T22:44:58.339Z,14.67
2023-03-29T22:50:01.476Z,20.03
2023-03-29T22:55:04.930Z,18.10
2023-03-29T23:00:09.499Z,15.43
2023-03-29T23:05:12.625Z,16.27
2023-03-29T23:10:16.148Z,17.90
2023-03-29T23:15:23.127Z,14.53
2023-03-29T23:20:26.498Z,16.70
2023-03-29T23:25:30.445Z,17.90
2023-03-29T23:30:37.382Z,13.30
2023-03-29T23:35:40.594Z,17.83
2023-03-29T23:40:44.366Z,17.43
2023-03-29T23:45:47.778Z,12.13
2023-03-29T23:50:51.181Z,13.13
2023-03-29T23:55:58.536Z,16.10
